sensor_id;sensor_type;location;lat;lon;timestamp;P1;durP1;ratioP1;P2;durP2;ratioP2
56043;SDS011;41912;51.022;3.664;2022-09-09T00:04:40;3.17;;;1.45;;
56043;SDS011;41912;51.022;3.664;2022-09-09T00:21:19;5.15;;;1.42;;
56043;SDS011;41912;51.022;3.664;2022-09-09T00:23:53;5.90;;;1.55;;
56043;SDS011;41912;51.022;3.664;2022-09-09T00:28:52;5.88;;;1.50;;
56043;SDS011;41912;51.022;3.664;2022-09-09T00:31:26;7.57;;;1.70;;
56043;SDS011;41912;51.022;3.664;2022-09-09T00:33:53;4.07;;;1.40;;
56043;SDS011;41912;51.022;3.664;2022-09-09T00:36:23;8.40;;;1.45;;
56043;SDS011;41912;51.022;3.664;2022-09-09T00:38:56;7.25;;;2.25;;
56043;SDS011;41912;51.022;3.664;2022-09-09T00:44:21;8.25;;;1.50;;
56043;SDS011;41912;51.022;3.664;2022-09-09T00:46:53;6.57;;;1.20;;
56043;SDS011;41912;51.022;3.664;2022-09-09T00:57:33;8.43;;;1.30;;
56043;SDS011;41912;51.022;3.664;2022-09-09T01:08:36;3.97;;;1.23;;
56043;SDS011;41912;51.022;3.664;2022-09-09T01:11:05;6.40;;;1.52;;
56043;SDS011;41912;51.022;3.664;2022-09-09T01:13:35;8.98;;;1.27;;
56043;SDS011;41912;51.022;3.664;2022-09-09T01:16:03;11.40;;;1.40;;
56043;SDS011;41912;51.022;3.664;2022-09-09T01:18:34;6.30;;;1.20;;
56043;SDS011;41912;51.022;3.664;2022-09-09T01:28:41;6.03;;;1.52;;
56043;SDS011;41912;51.022;3.664;2022-09-09T01:31:11;9.23;;;1.40;;
56043;SDS011;41912;51.022;3.664;2022-09-09T01:33:40;7.53;;;1.83;;
56043;SDS011;41912;51.022;3.664;2022-09-09T01:36:13;5.10;;;1.13;;
56043;SDS011;41912;51.022;3.664;2022-09-09T01:38:56;7.55;;;1.58;;
56043;SDS011;41912;51.022;3.664;2022-09-09T01:41:22;10.65;;;1.23;;
56043;SDS011;41912;51.022;3.664;2022-09-09T01:43:48;5.78;;;1.17;;
56043;SDS011;41912;51.022;3.664;2022-09-09T01:46:15;4.25;;;1.15;;
56043;SDS011;41912;51.022;3.664;2022-09-09T01:48:42;3.50;;;1.20;;
56043;SDS011;41912;51.022;3.664;2022-09-09T01:51:09;8.75;;;1.42;;
56043;SDS011;41912;51.022;3.664;2022-09-09T01:53:35;4.10;;;1.30;;
56043;SDS011;41912;51.022;3.664;2022-09-09T01:58:45;5.88;;;1.20;;
56043;SDS011;41912;51.022;3.664;2022-09-09T02:04:07;8.32;;;1.38;;
56043;SDS011;41912;51.022;3.664;2022-09-09T02:06:45;7.13;;;1.30;;
56043;SDS011;41912;51.022;3.664;2022-09-09T02:09:12;9.32;;;1.38;;
56043;SDS011;41912;51.022;3.664;2022-09-09T02:11:42;6.28;;;1.05;;
56043;SDS011;41912;51.022;3.664;2022-09-09T02:14:13;9.07;;;1.05;;
56043;SDS011;41912;51.022;3.664;2022-09-09T02:16:53;7.70;;;2.40;;
56043;SDS011;41912;51.022;3.664;2022-09-09T02:19:35;5.38;;;1.20;;
56043;SDS011;41912;51.022;3.664;2022-09-09T02:22:04;5.77;;;1.17;;
56043;SDS011;41912;51.022;3.664;2022-09-09T02:24:32;7.65;;;1.35;;
56043;SDS011;41912;51.022;3.664;2022-09-09T02:27:01;8.07;;;1.80;;
56043;SDS011;41912;51.022;3.664;2022-09-09T02:29:31;8.32;;;1.55;;
56043;SDS011;41912;51.022;3.664;2022-09-09T02:32:01;3.38;;;1.10;;
56043;SDS011;41912;51.022;3.664;2022-09-09T02:34:31;7.63;;;1.70;;
56043;SDS011;41912;51.022;3.664;2022-09-09T02:37:01;8.00;;;1.90;;
56043;SDS011;41912;51.022;3.664;2022-09-09T02:39:28;8.45;;;1.83;;
56043;SDS011;41912;51.022;3.664;2022-09-09T02:41:54;8.73;;;1.45;;
56043;SDS011;41912;51.022;3.664;2022-09-09T02:44:19;10.48;;;1.42;;
56043;SDS011;41912;51.022;3.664;2022-09-09T02:55:20;15.57;;;1.58;;
56043;SDS011;41912;51.022;3.664;2022-09-09T02:58:10;12.63;;;1.88;;
56043;SDS011;41912;51.022;3.664;2022-09-09T03:00:42;7.78;;;1.52;;
56043;SDS011;41912;51.022;3.664;2022-09-09T03:03:09;10.65;;;1.92;;
56043;SDS011;41912;51.022;3.664;2022-09-09T03:05:35;7.90;;;1.80;;
56043;SDS011;41912;51.022;3.664;2022-09-09T03:08:01;12.68;;;1.70;;
56043;SDS011;41912;51.022;3.664;2022-09-09T03:10:27;5.50;;;1.27;;
56043;SDS011;41912;51.022;3.664;2022-09-09T03:12:53;7.57;;;1.65;;
56043;SDS011;41912;51.022;3.664;2022-09-09T03:15:20;9.32;;;2.17;;
56043;SDS011;41912;51.022;3.664;2022-09-09T03:17:46;10.32;;;2.17;;
56043;SDS011;41912;51.022;3.664;2022-09-09T03:20:12;10.68;;;1.50;;
56043;SDS011;41912;51.022;3.664;2022-09-09T03:22:38;8.90;;;1.58;;
56043;SDS011;41912;51.022;3.664;2022-09-09T03:25:04;13.15;;;1.65;;
56043;SDS011;41912;51.022;3.664;2022-09-09T03:27:30;12.70;;;1.80;;
56043;SDS011;41912;51.022;3.664;2022-09-09T03:29:56;9.20;;;1.77;;
56043;SDS011;41912;51.022;3.664;2022-09-09T03:32:22;10.13;;;1.80;;
56043;SDS011;41912;51.022;3.664;2022-09-09T03:34:50;12.57;;;1.90;;
56043;SDS011;41912;51.022;3.664;2022-09-09T03:37:17;10.55;;;2.00;;
56043;SDS011;41912;51.022;3.664;2022-09-09T03:39:43;10.60;;;2.65;;
56043;SDS011;41912;51.022;3.664;2022-09-09T03:42:08;14.82;;;1.73;;
56043;SDS011;41912;51.022;3.664;2022-09-09T03:44:39;9.82;;;2.08;;
56043;SDS011;41912;51.022;3.664;2022-09-09T03:47:05;11.18;;;1.75;;
56043;SDS011;41912;51.022;3.664;2022-09-09T03:49:31;9.63;;;1.92;;
56043;SDS011;41912;51.022;3.664;2022-09-09T03:51:57;16.85;;;2.28;;
56043;SDS011;41912;51.022;3.664;2022-09-09T03:54:24;12.68;;;3.35;;
56043;SDS011;41912;51.022;3.664;2022-09-09T03:56:50;14.45;;;2.45;;
56043;SDS011;41912;51.022;3.664;2022-09-09T03:59:16;8.73;;;1.77;;
56043;SDS011;41912;51.022;3.664;2022-09-09T04:01:41;12.32;;;1.90;;
56043;SDS011;41912;51.022;3.664;2022-09-09T04:04:07;13.98;;;2.30;;
56043;SDS011;41912;51.022;3.664;2022-09-09T04:06:33;10.40;;;2.15;;
56043;SDS011;41912;51.022;3.664;2022-09-09T04:08:59;10.52;;;1.70;;
56043;SDS011;41912;51.022;3.664;2022-09-09T04:11:27;13.27;;;2.10;;
56043;SDS011;41912;51.022;3.664;2022-09-09T04:13:53;11.20;;;2.20;;
56043;SDS011;41912;51.022;3.664;2022-09-09T04:16:18;19.48;;;2.85;;
56043;SDS011;41912;51.022;3.664;2022-09-09T04:18:45;9.48;;;2.00;;
56043;SDS011;41912;51.022;3.664;2022-09-09T04:21:10;9.25;;;2.05;;
56043;SDS011;41912;51.022;3.664;2022-09-09T04:23:37;15.43;;;2.13;;
56043;SDS011;41912;51.022;3.664;2022-09-09T04:26:03;7.85;;;1.63;;
56043;SDS011;41912;51.022;3.664;2022-09-09T04:28:31;12.95;;;2.40;;
56043;SDS011;41912;51.022;3.664;2022-09-09T04:31:14;10.63;;;1.80;;
56043;SDS011;41912;51.022;3.664;2022-09-09T04:33:46;10.55;;;2.67;;
56043;SDS011;41912;51.022;3.664;2022-09-09T04:36:12;16.33;;;2.20;;
56043;SDS011;41912;51.022;3.664;2022-09-09T04:38:38;11.77;;;2.05;;
56043;SDS011;41912;51.022;3.664;2022-09-09T04:41:04;10.80;;;1.80;;
56043;SDS011;41912;51.022;3.664;2022-09-09T04:43:30;9.55;;;1.75;;
56043;SDS011;41912;51.022;3.664;2022-09-09T04:45:56;10.20;;;2.03;;
56043;SDS011;41912;51.022;3.664;2022-09-09T04:48:24;15.75;;;2.05;;
56043;SDS011;41912;51.022;3.664;2022-09-09T04:51:03;10.05;;;1.95;;
56043;SDS011;41912;51.022;3.664;2022-09-09T04:53:30;15.50;;;2.00;;
56043;SDS011;41912;51.022;3.664;2022-09-09T04:56:02;7.55;;;2.05;;
56043;SDS011;41912;51.022;3.664;2022-09-09T04:58:29;17.85;;;2.40;;
56043;SDS011;41912;51.022;3.664;2022-09-09T05:00:55;11.35;;;2.03;;
56043;SDS011;41912;51.022;3.664;2022-09-09T05:03:27;9.55;;;1.80;;
56043;SDS011;41912;51.022;3.664;2022-09-09T05:05:53;11.60;;;2.53;;
56043;SDS011;41912;51.022;3.664;2022-09-09T05:08:19;9.65;;;2.30;;
56043;SDS011;41912;51.022;3.664;2022-09-09T05:10:45;26.80;;;3.05;;
56043;SDS011;41912;51.022;3.664;2022-09-09T05:13:11;14.73;;;2.67;;
56043;SDS011;41912;51.022;3.664;2022-09-09T05:15:36;11.40;;;2.72;;
56043;SDS011;41912;51.022;3.664;2022-09-09T05:18:02;12.63;;;2.33;;
56043;SDS011;41912;51.022;3.664;2022-09-09T05:20:28;11.27;;;2.28;;
56043;SDS011;41912;51.022;3.664;2022-09-09T05:22:54;17.92;;;3.13;;
56043;SDS011;41912;51.022;3.664;2022-09-09T05:25:21;12.57;;;2.42;;
56043;SDS011;41912;51.022;3.664;2022-09-09T05:27:47;11.85;;;2.40;;
56043;SDS011;41912;51.022;3.664;2022-09-09T05:30:14;8.90;;;2.33;;
56043;SDS011;41912;51.022;3.664;2022-09-09T05:32:40;13.75;;;2.28;;
56043;SDS011;41912;51.022;3.664;2022-09-09T05:35:06;14.77;;;3.13;;
56043;SDS011;41912;51.022;3.664;2022-09-09T05:37:31;12.02;;;2.28;;
56043;SDS011;41912;51.022;3.664;2022-09-09T05:39:57;13.05;;;2.33;;
56043;SDS011;41912;51.022;3.664;2022-09-09T05:42:23;17.38;;;2.10;;
56043;SDS011;41912;51.022;3.664;2022-09-09T05:44:49;15.82;;;2.58;;
56043;SDS011;41912;51.022;3.664;2022-09-09T05:47:15;14.57;;;2.10;;
56043;SDS011;41912;51.022;3.664;2022-09-09T05:49:42;13.60;;;1.85;;
56043;SDS011;41912;51.022;3.664;2022-09-09T05:52:07;11.20;;;2.53;;
56043;SDS011;41912;51.022;3.664;2022-09-09T05:54:34;7.57;;;1.95;;
56043;SDS011;41912;51.022;3.664;2022-09-09T05:57:01;13.95;;;2.00;;
56043;SDS011;41912;51.022;3.664;2022-09-09T05:59:27;15.75;;;2.17;;
56043;SDS011;41912;51.022;3.664;2022-09-09T06:01:53;13.25;;;2.20;;
56043;SDS011;41912;51.022;3.664;2022-09-09T06:04:19;11.30;;;2.50;;
56043;SDS011;41912;51.022;3.664;2022-09-09T06:06:47;12.15;;;2.40;;
56043;SDS011;41912;51.022;3.664;2022-09-09T06:09:13;10.70;;;2.03;;
56043;SDS011;41912;51.022;3.664;2022-09-09T06:11:40;14.07;;;2.17;;
56043;SDS011;41912;51.022;3.664;2022-09-09T06:14:06;11.90;;;2.38;;
56043;SDS011;41912;51.022;3.664;2022-09-09T06:16:33;11.25;;;2.30;;
56043;SDS011;41912;51.022;3.664;2022-09-09T06:18:59;11.23;;;2.90;;
56043;SDS011;41912;51.022;3.664;2022-09-09T06:21:35;11.65;;;2.13;;
56043;SDS011;41912;51.022;3.664;2022-09-09T06:24:05;18.35;;;2.53;;
56043;SDS011;41912;51.022;3.664;2022-09-09T06:26:35;13.93;;;2.95;;
56043;SDS011;41912;51.022;3.664;2022-09-09T06:29:04;12.80;;;2.92;;
56043;SDS011;41912;51.022;3.664;2022-09-09T06:31:30;16.67;;;2.33;;
56043;SDS011;41912;51.022;3.664;2022-09-09T06:33:59;14.80;;;2.20;;
56043;SDS011;41912;51.022;3.664;2022-09-09T06:36:29;13.40;;;1.98;;
56043;SDS011;41912;51.022;3.664;2022-09-09T06:38:56;9.85;;;2.08;;
56043;SDS011;41912;51.022;3.664;2022-09-09T06:41:23;10.75;;;2.20;;
56043;SDS011;41912;51.022;3.664;2022-09-09T06:43:53;16.65;;;3.35;;
56043;SDS011;41912;51.022;3.664;2022-09-09T06:46:30;11.68;;;2.17;;
56043;SDS011;41912;51.022;3.664;2022-09-09T06:48:57;14.35;;;2.15;;
56043;SDS011;41912;51.022;3.664;2022-09-09T06:51:29;11.15;;;2.28;;
56043;SDS011;41912;51.022;3.664;2022-09-09T06:53:57;7.32;;;2.15;;
56043;SDS011;41912;51.022;3.664;2022-09-09T06:56:28;12.68;;;2.47;;
56043;SDS011;41912;51.022;3.664;2022-09-09T06:58:56;12.98;;;2.28;;
56043;SDS011;41912;51.022;3.664;2022-09-09T07:01:24;11.60;;;2.35;;
56043;SDS011;41912;51.022;3.664;2022-09-09T07:03:52;12.20;;;2.50;;
56043;SDS011;41912;51.022;3.664;2022-09-09T07:06:23;21.15;;;2.60;;
56043;SDS011;41912;51.022;3.664;2022-09-09T07:09:00;10.10;;;2.25;;
56043;SDS011;41912;51.022;3.664;2022-09-09T07:11:29;9.75;;;2.13;;
56043;SDS011;41912;51.022;3.664;2022-09-09T07:13:59;11.15;;;2.28;;
56043;SDS011;41912;51.022;3.664;2022-09-09T07:16:26;11.77;;;2.03;;
56043;SDS011;41912;51.022;3.664;2022-09-09T07:18:52;11.52;;;2.25;;
56043;SDS011;41912;51.022;3.664;2022-09-09T07:21:23;13.52;;;2.45;;
56043;SDS011;41912;51.022;3.664;2022-09-09T07:23:49;11.75;;;2.15;;
56043;SDS011;41912;51.022;3.664;2022-09-09T07:26:17;12.32;;;2.50;;
56043;SDS011;41912;51.022;3.664;2022-09-09T07:28:47;12.35;;;2.08;;
56043;SDS011;41912;51.022;3.664;2022-09-09T07:31:17;15.85;;;3.00;;
56043;SDS011;41912;51.022;3.664;2022-09-09T07:33:47;15.20;;;2.55;;
56043;SDS011;41912;51.022;3.664;2022-09-09T07:38:44;6.35;;;2.05;;
56043;SDS011;41912;51.022;3.664;2022-09-09T07:41:13;13.38;;;3.00;;
56043;SDS011;41912;51.022;3.664;2022-09-09T07:43:41;7.93;;;1.77;;
56043;SDS011;41912;51.022;3.664;2022-09-09T07:46:08;11.95;;;2.20;;
56043;SDS011;41912;51.022;3.664;2022-09-09T07:48:35;12.23;;;2.40;;
56043;SDS011;41912;51.022;3.664;2022-09-09T07:51:09;11.35;;;2.15;;
56043;SDS011;41912;51.022;3.664;2022-09-09T07:53:37;11.80;;;2.55;;
56043;SDS011;41912;51.022;3.664;2022-09-09T07:56:05;12.23;;;1.95;;
56043;SDS011;41912;51.022;3.664;2022-09-09T07:58:34;11.88;;;2.28;;
56043;SDS011;41912;51.022;3.664;2022-09-09T08:01:05;15.88;;;3.13;;
56043;SDS011;41912;51.022;3.664;2022-09-09T08:03:32;10.18;;;2.00;;
56043;SDS011;41912;51.022;3.664;2022-09-09T08:06:02;8.35;;;1.95;;
56043;SDS011;41912;51.022;3.664;2022-09-09T08:08:29;13.23;;;2.17;;
56043;SDS011;41912;51.022;3.664;2022-09-09T08:11:03;9.80;;;2.00;;
56043;SDS011;41912;51.022;3.664;2022-09-09T08:13:34;13.70;;;2.03;;
56043;SDS011;41912;51.022;3.664;2022-09-09T08:16:07;13.77;;;2.30;;
56043;SDS011;41912;51.022;3.664;2022-09-09T08:18:36;9.25;;;1.83;;
56043;SDS011;41912;51.022;3.664;2022-09-09T08:21:08;6.88;;;1.73;;
56043;SDS011;41912;51.022;3.664;2022-09-09T08:23:39;9.43;;;1.85;;
56043;SDS011;41912;51.022;3.664;2022-09-09T08:26:10;13.43;;;2.38;;
56043;SDS011;41912;51.022;3.664;2022-09-09T08:28:38;7.97;;;1.88;;
56043;SDS011;41912;51.022;3.664;2022-09-09T08:31:12;12.27;;;3.05;;
56043;SDS011;41912;51.022;3.664;2022-09-09T08:33:39;12.00;;;1.58;;
56043;SDS011;41912;51.022;3.664;2022-09-09T08:36:06;11.77;;;2.08;;
56043;SDS011;41912;51.022;3.664;2022-09-09T08:38:34;8.68;;;1.70;;
56043;SDS011;41912;51.022;3.664;2022-09-09T08:43:41;7.90;;;1.35;;
56043;SDS011;41912;51.022;3.664;2022-09-09T08:46:11;9.27;;;1.73;;
56043;SDS011;41912;51.022;3.664;2022-09-09T08:51:19;8.82;;;1.50;;
56043;SDS011;41912;51.022;3.664;2022-09-09T08:53:47;5.95;;;2.10;;
56043;SDS011;41912;51.022;3.664;2022-09-09T08:56:15;8.77;;;1.83;;
56043;SDS011;41912;51.022;3.664;2022-09-09T08:58:46;9.68;;;2.15;;
56043;SDS011;41912;51.022;3.664;2022-09-09T09:04:33;7.13;;;1.75;;
56043;SDS011;41912;51.022;3.664;2022-09-09T09:12:45;11.18;;;2.47;;
56043;SDS011;41912;51.022;3.664;2022-09-09T09:15:23;10.00;;;1.95;;
56043;SDS011;41912;51.022;3.664;2022-09-09T09:17:51;11.00;;;2.30;;
56043;SDS011;41912;51.022;3.664;2022-09-09T09:20:18;6.57;;;1.60;;
56043;SDS011;41912;51.022;3.664;2022-09-09T09:22:56;7.40;;;1.50;;
56043;SDS011;41912;51.022;3.664;2022-09-09T09:25:27;9.48;;;2.15;;
56043;SDS011;41912;51.022;3.664;2022-09-09T09:30:50;7.28;;;1.67;;
56043;SDS011;41912;51.022;3.664;2022-09-09T09:35:59;4.72;;;1.50;;
56043;SDS011;41912;51.022;3.664;2022-09-09T09:38:26;11.77;;;2.28;;
56043;SDS011;41912;51.022;3.664;2022-09-09T09:40:56;9.95;;;1.88;;
56043;SDS011;41912;51.022;3.664;2022-09-09T09:43:24;10.82;;;2.03;;
56043;SDS011;41912;51.022;3.664;2022-09-09T09:45:55;5.57;;;1.52;;
56043;SDS011;41912;51.022;3.664;2022-09-09T09:48:27;6.22;;;1.45;;
56043;SDS011;41912;51.022;3.664;2022-09-09T09:50:57;7.57;;;1.77;;
56043;SDS011;41912;51.022;3.664;2022-09-09T09:56:02;9.38;;;1.70;;
56043;SDS011;41912;51.022;3.664;2022-09-09T10:04:18;6.63;;;1.83;;
56043;SDS011;41912;51.022;3.664;2022-09-09T10:06:48;8.15;;;1.90;;
56043;SDS011;41912;51.022;3.664;2022-09-09T10:09:30;11.35;;;3.70;;
56043;SDS011;41912;51.022;3.664;2022-09-09T10:29:23;8.65;;;1.55;;
56043;SDS011;41912;51.022;3.664;2022-09-09T10:38:30;5.40;;;1.40;;
56043;SDS011;41912;51.022;3.664;2022-09-09T10:41:00;11.43;;;1.58;;
56043;SDS011;41912;51.022;3.664;2022-09-09T10:44:04;3.58;;;0.80;;
56043;SDS011;41912;51.022;3.664;2022-09-09T10:52:36;6.90;;;1.52;;
56043;SDS011;41912;51.022;3.664;2022-09-09T10:57:44;5.15;;;1.33;;
56043;SDS011;41912;51.022;3.664;2022-09-09T11:00:19;4.45;;;1.15;;
56043;SDS011;41912;51.022;3.664;2022-09-09T11:03:04;9.18;;;1.52;;
56043;SDS011;41912;51.022;3.664;2022-09-09T11:05:45;5.68;;;1.00;;
56043;SDS011;41912;51.022;3.664;2022-09-09T11:13:23;3.28;;;1.15;;
56043;SDS011;41912;51.022;3.664;2022-09-09T11:15:52;7.30;;;1.83;;
56043;SDS011;41912;51.022;3.664;2022-09-09T11:18:22;4.00;;;1.30;;
56043;SDS011;41912;51.022;3.664;2022-09-09T11:20:49;4.38;;;1.55;;
56043;SDS011;41912;51.022;3.664;2022-09-09T11:26:40;10.68;;;1.30;;
56043;SDS011;41912;51.022;3.664;2022-09-09T11:32:17;3.88;;;1.30;;
56043;SDS011;41912;51.022;3.664;2022-09-09T11:40:56;3.30;;;1.20;;
56043;SDS011;41912;51.022;3.664;2022-09-09T11:43:28;1.90;;;0.80;;
56043;SDS011;41912;51.022;3.664;2022-09-09T11:45:57;8.85;;;1.52;;
56043;SDS011;41912;51.022;3.664;2022-09-09T11:48:29;5.05;;;1.08;;
56043;SDS011;41912;51.022;3.664;2022-09-09T11:51:08;4.68;;;0.98;;
56043;SDS011;41912;51.022;3.664;2022-09-09T11:53:46;5.00;;;1.42;;
56043;SDS011;41912;51.022;3.664;2022-09-09T11:56:29;3.80;;;0.90;;
56043;SDS011;41912;51.022;3.664;2022-09-09T11:59:04;5.50;;;1.25;;
56043;SDS011;41912;51.022;3.664;2022-09-09T12:01:41;3.38;;;0.90;;
56043;SDS011;41912;51.022;3.664;2022-09-09T12:04:14;9.05;;;1.20;;
56043;SDS011;41912;51.022;3.664;2022-09-09T12:07:04;4.22;;;1.05;;
56043;SDS011;41912;51.022;3.664;2022-09-09T12:14:38;5.20;;;0.93;;
56043;SDS011;41912;51.022;3.664;2022-09-09T12:19:40;5.88;;;1.20;;
56043;SDS011;41912;51.022;3.664;2022-09-09T12:22:07;8.13;;;1.20;;
56043;SDS011;41912;51.022;3.664;2022-09-09T12:24:49;7.82;;;1.48;;
56043;SDS011;41912;51.022;3.664;2022-09-09T12:27:57;3.75;;;1.20;;
56043;SDS011;41912;51.022;3.664;2022-09-09T12:30:33;9.32;;;1.70;;
56043;SDS011;41912;51.022;3.664;2022-09-09T12:33:20;3.95;;;1.10;;
56043;SDS011;41912;51.022;3.664;2022-09-09T12:35:50;5.10;;;1.13;;
56043;SDS011;41912;51.022;3.664;2022-09-09T12:38:27;4.65;;;0.95;;
56043;SDS011;41912;51.022;3.664;2022-09-09T12:41:03;6.55;;;1.80;;
56043;SDS011;41912;51.022;3.664;2022-09-09T12:43:29;15.18;;;1.90;;
56043;SDS011;41912;51.022;3.664;2022-09-09T12:46:03;2.92;;;1.17;;
56043;SDS011;41912;51.022;3.664;2022-09-09T12:48:34;6.88;;;1.30;;
56043;SDS011;41912;51.022;3.664;2022-09-09T12:51:15;4.75;;;1.08;;
56043;SDS011;41912;51.022;3.664;2022-09-09T12:53:53;5.45;;;1.00;;
56043;SDS011;41912;51.022;3.664;2022-09-09T12:56:21;5.22;;;1.45;;
56043;SDS011;41912;51.022;3.664;2022-09-09T12:58:52;2.83;;;0.80;;
56043;SDS011;41912;51.022;3.664;2022-09-09T13:01:30;7.28;;;1.30;;
56043;SDS011;41912;51.022;3.664;2022-09-09T13:03:57;5.55;;;1.67;;
56043;SDS011;41912;51.022;3.664;2022-09-09T13:06:24;3.58;;;1.45;;
56043;SDS011;41912;51.022;3.664;2022-09-09T13:09:00;2.35;;;1.15;;
56043;SDS011;41912;51.022;3.664;2022-09-09T13:14:04;3.22;;;1.27;;
56043;SDS011;41912;51.022;3.664;2022-09-09T13:16:34;5.28;;;1.30;;
56043;SDS011;41912;51.022;3.664;2022-09-09T13:19:13;3.35;;;1.40;;
56043;SDS011;41912;51.022;3.664;2022-09-09T13:21:40;4.22;;;1.13;;
56043;SDS011;41912;51.022;3.664;2022-09-09T13:26:56;5.43;;;1.10;;
56043;SDS011;41912;51.022;3.664;2022-09-09T13:29:25;3.67;;;1.10;;
56043;SDS011;41912;51.022;3.664;2022-09-09T13:31:50;5.38;;;1.15;;
56043;SDS011;41912;51.022;3.664;2022-09-09T13:34:28;6.30;;;1.40;;
56043;SDS011;41912;51.022;3.664;2022-09-09T13:36:59;7.88;;;1.23;;
56043;SDS011;41912;51.022;3.664;2022-09-09T13:39:33;4.35;;;1.17;;
56043;SDS011;41912;51.022;3.664;2022-09-09T13:42:02;2.65;;;0.90;;
56043;SDS011;41912;51.022;3.664;2022-09-09T13:44:34;2.60;;;1.05;;
56043;SDS011;41912;51.022;3.664;2022-09-09T13:49:44;4.75;;;0.98;;
56043;SDS011;41912;51.022;3.664;2022-09-09T13:52:17;3.53;;;1.15;;
56043;SDS011;41912;51.022;3.664;2022-09-09T13:54:50;7.10;;;1.13;;
56043;SDS011;41912;51.022;3.664;2022-09-09T13:57:18;5.45;;;1.30;;
56043;SDS011;41912;51.022;3.664;2022-09-09T13:59:46;3.90;;;0.90;;
56043;SDS011;41912;51.022;3.664;2022-09-09T14:02:12;7.57;;;1.15;;
56043;SDS011;41912;51.022;3.664;2022-09-09T14:04:39;6.47;;;1.20;;
56043;SDS011;41912;51.022;3.664;2022-09-09T14:07:08;6.03;;;0.93;;
56043;SDS011;41912;51.022;3.664;2022-09-09T14:09:39;3.58;;;1.10;;
56043;SDS011;41912;51.022;3.664;2022-09-09T14:12:05;7.68;;;1.45;;
56043;SDS011;41912;51.022;3.664;2022-09-09T14:14:33;5.35;;;0.98;;
56043;SDS011;41912;51.022;3.664;2022-09-09T14:16:59;4.88;;;0.80;;
56043;SDS011;41912;51.022;3.664;2022-09-09T14:19:25;6.32;;;0.85;;
56043;SDS011;41912;51.022;3.664;2022-09-09T14:21:51;4.22;;;0.73;;
56043;SDS011;41912;51.022;3.664;2022-09-09T14:24:16;2.65;;;0.95;;
56043;SDS011;41912;51.022;3.664;2022-09-09T14:26:42;5.07;;;1.27;;
56043;SDS011;41912;51.022;3.664;2022-09-09T14:29:08;4.38;;;0.98;;
56043;SDS011;41912;51.022;3.664;2022-09-09T14:31:33;4.60;;;1.00;;
56043;SDS011;41912;51.022;3.664;2022-09-09T14:33:59;3.20;;;0.95;;
56043;SDS011;41912;51.022;3.664;2022-09-09T14:36:25;8.10;;;1.45;;
56043;SDS011;41912;51.022;3.664;2022-09-09T14:38:50;1.33;;;0.70;;
56043;SDS011;41912;51.022;3.664;2022-09-09T14:41:18;6.55;;;1.25;;
56043;SDS011;41912;51.022;3.664;2022-09-09T14:43:45;4.03;;;0.80;;
56043;SDS011;41912;51.022;3.664;2022-09-09T14:46:12;5.60;;;0.90;;
56043;SDS011;41912;51.022;3.664;2022-09-09T14:48:40;3.10;;;0.73;;
56043;SDS011;41912;51.022;3.664;2022-09-09T14:51:09;2.58;;;0.90;;
56043;SDS011;41912;51.022;3.664;2022-09-09T14:53:40;2.85;;;1.00;;
56043;SDS011;41912;51.022;3.664;2022-09-09T14:56:06;2.25;;;0.98;;
56043;SDS011;41912;51.022;3.664;2022-09-09T14:58:35;3.92;;;1.05;;
56043;SDS011;41912;51.022;3.664;2022-09-09T15:01:06;4.68;;;0.90;;
56043;SDS011;41912;51.022;3.664;2022-09-09T15:03:35;3.28;;;0.90;;
56043;SDS011;41912;51.022;3.664;2022-09-09T15:06:08;4.55;;;1.02;;
56043;SDS011;41912;51.022;3.664;2022-09-09T15:08:39;6.50;;;0.93;;
56043;SDS011;41912;51.022;3.664;2022-09-09T15:11:06;4.18;;;0.75;;
56043;SDS011;41912;51.022;3.664;2022-09-09T15:13:32;3.63;;;0.90;;
56043;SDS011;41912;51.022;3.664;2022-09-09T15:18:32;4.85;;;1.13;;
56043;SDS011;41912;51.022;3.664;2022-09-09T15:20:58;2.38;;;0.75;;
56043;SDS011;41912;51.022;3.664;2022-09-09T15:26:48;1.95;;;0.68;;
56043;SDS011;41912;51.022;3.664;2022-09-09T15:29:14;2.10;;;0.70;;
56043;SDS011;41912;51.022;3.664;2022-09-09T15:31:40;3.63;;;0.60;;
56043;SDS011;41912;51.022;3.664;2022-09-09T15:34:06;2.38;;;0.95;;
56043;SDS011;41912;51.022;3.664;2022-09-09T15:39:04;3.53;;;1.00;;
56043;SDS011;41912;51.022;3.664;2022-09-09T15:41:32;3.30;;;0.90;;
56043;SDS011;41912;51.022;3.664;2022-09-09T15:43:58;4.97;;;0.90;;
56043;SDS011;41912;51.022;3.664;2022-09-09T15:46:32;6.10;;;1.15;;
56043;SDS011;41912;51.022;3.664;2022-09-09T15:49:18;2.38;;;1.25;;
56043;SDS011;41912;51.022;3.664;2022-09-09T15:51:47;1.60;;;0.88;;
56043;SDS011;41912;51.022;3.664;2022-09-09T15:54:20;4.25;;;1.13;;
56043;SDS011;41912;51.022;3.664;2022-09-09T15:56:50;2.67;;;0.85;;
56043;SDS011;41912;51.022;3.664;2022-09-09T15:59:19;5.43;;;1.00;;
56043;SDS011;41912;51.022;3.664;2022-09-09T16:01:45;4.80;;;1.30;;
56043;SDS011;41912;51.022;3.664;2022-09-09T16:04:11;2.35;;;1.02;;
56043;SDS011;41912;51.022;3.664;2022-09-09T16:06:37;6.90;;;1.17;;
56043;SDS011;41912;51.022;3.664;2022-09-09T16:09:03;3.22;;;1.15;;
56043;SDS011;41912;51.022;3.664;2022-09-09T16:11:32;3.83;;;1.17;;
56043;SDS011;41912;51.022;3.664;2022-09-09T16:14:00;6.90;;;1.02;;
56043;SDS011;41912;51.022;3.664;2022-09-09T16:16:26;7.07;;;1.15;;
56043;SDS011;41912;51.022;3.664;2022-09-09T16:18:54;2.78;;;1.13;;
56043;SDS011;41912;51.022;3.664;2022-09-09T16:21:22;5.10;;;1.42;;
56043;SDS011;41912;51.022;3.664;2022-09-09T16:23:56;6.47;;;1.45;;
56043;SDS011;41912;51.022;3.664;2022-09-09T16:26:27;8.38;;;1.35;;
56043;SDS011;41912;51.022;3.664;2022-09-09T16:28:54;6.45;;;1.58;;
56043;SDS011;41912;51.022;3.664;2022-09-09T16:31:21;3.58;;;1.40;;
56043;SDS011;41912;51.022;3.664;2022-09-09T16:33:49;7.03;;;1.80;;
56043;SDS011;41912;51.022;3.664;2022-09-09T16:36:19;7.82;;;1.38;;
56043;SDS011;41912;51.022;3.664;2022-09-09T16:38:47;7.18;;;1.27;;
56043;SDS011;41912;51.022;3.664;2022-09-09T16:41:13;4.88;;;1.38;;
56043;SDS011;41912;51.022;3.664;2022-09-09T16:43:39;4.43;;;1.50;;
56043;SDS011;41912;51.022;3.664;2022-09-09T16:46:11;3.85;;;1.67;;
56043;SDS011;41912;51.022;3.664;2022-09-09T16:48:43;6.43;;;1.27;;
56043;SDS011;41912;51.022;3.664;2022-09-09T16:54:14;13.48;;;2.97;;
56043;SDS011;41912;51.022;3.664;2022-09-09T16:56:42;9.48;;;2.40;;
56043;SDS011;41912;51.022;3.664;2022-09-09T16:59:10;11.05;;;3.47;;
56043;SDS011;41912;51.022;3.664;2022-09-09T17:01:38;11.57;;;1.85;;
56043;SDS011;41912;51.022;3.664;2022-09-09T17:04:09;4.93;;;1.60;;
56043;SDS011;41912;51.022;3.664;2022-09-09T17:06:36;5.13;;;1.75;;
56043;SDS011;41912;51.022;3.664;2022-09-09T17:09:07;10.63;;;1.63;;
56043;SDS011;41912;51.022;3.664;2022-09-09T17:14:02;8.73;;;1.75;;
56043;SDS011;41912;51.022;3.664;2022-09-09T17:16:29;6.15;;;1.60;;
56043;SDS011;41912;51.022;3.664;2022-09-09T17:18:56;6.18;;;1.33;;
56043;SDS011;41912;51.022;3.664;2022-09-09T17:21:24;5.57;;;1.23;;
56043;SDS011;41912;51.022;3.664;2022-09-09T17:23:51;5.40;;;1.40;;
56043;SDS011;41912;51.022;3.664;2022-09-09T17:26:18;8.07;;;1.40;;
56043;SDS011;41912;51.022;3.664;2022-09-09T17:28:47;7.93;;;1.38;;
56043;SDS011;41912;51.022;3.664;2022-09-09T17:31:14;10.90;;;1.80;;
56043;SDS011;41912;51.022;3.664;2022-09-09T17:33:42;6.20;;;1.30;;
56043;SDS011;41912;51.022;3.664;2022-09-09T17:36:26;5.77;;;1.33;;
56043;SDS011;41912;51.022;3.664;2022-09-09T17:38:59;10.70;;;2.15;;
56043;SDS011;41912;51.022;3.664;2022-09-09T17:41:27;8.93;;;1.70;;
56043;SDS011;41912;51.022;3.664;2022-09-09T17:43:57;8.65;;;1.73;;
56043;SDS011;41912;51.022;3.664;2022-09-09T17:46:31;13.70;;;3.17;;
56043;SDS011;41912;51.022;3.664;2022-09-09T17:49:02;13.38;;;3.33;;